Time;durP1;ratioP1;P1;durP2;ratioP2;P2;SDS_P1;SDS_P2;PMS_P1;PMS_P2;Temp;Humidity;BMP_temperature;BMP_pressure;BME280_temperature;BME280_humidity;BME280_pressure;Samples;Min_cycle;Max_cycle;Signal;HPM_P1;HPM_P2
2022/10/23 00:01:32;;;;;;;25.40;13.00;;;;;;;;;;5028820;28;20175;-67
2022/10/23 00:04:00;;;;;;;23.77;12.60;;;;;;;;;;5011995;28;20192;-67
2022/10/23 00:06:27;;;;;;;26.87;12.90;;;;;;;;;;5028836;28;20183;-67
2022/10/23 00:08:53;;;;;;;21.80;12.23;;;;;;;;;;5029373;28;20195;-67
2022/10/23 00:11:24;;;;;;;21.70;13.07;;;;;;;;;;5027891;28;20293;-67
2022/10/23 00:13:52;;;;;;;21.27;12.40;;;;;;;;;;5028224;28;20677;-67
2022/10/23 00:16:19;;;;;;;22.87;12.40;;;;;;;;;;5029197;28;20199;-67
2022/10/23 00:18:45;;;;;;;23.27;13.07;;;;;;;;;;5029001;28;20201;-67
2022/10/23 00:21:12;;;;;;;21.87;12.57;;;;;;;;;;5028851;28;20206;-67
2022/10/23 00:23:39;;;;;;;22.77;12.90;;;;;;;;;;5027317;28;20201;-68
2022/10/23 00:26:07;;;;;;;26.13;13.03;;;;;;;;;;5028650;28;20191;-67
2022/10/23 00:28:33;;;;;;;23.93;12.87;;;;;;;;;;5029055;28;20266;-67
2022/10/23 00:31:01;;;;;;;28.53;14.53;;;;;;;;;;5011753;28;20215;-67
2022/10/23 00:33:28;;;;;;;30.43;14.53;;;;;;;;;;5027579;28;20200;-67
2022/10/23 00:35:55;;;;;;;29.03;15.13;;;;;;;;;;5011213;28;20192;-67
2022/10/23 00:38:22;;;;;;;29.17;15.20;;;;;;;;;;5028779;28;20647;-67
2022/10/23 00:40:48;;;;;;;27.70;12.93;;;;;;;;;;5027514;28;20203;-67
2022/10/23 00:43:21;;;;;;;26.63;14.33;;;;;;;;;;4995262;28;20199;-67
2022/10/23 00:45:48;;;;;;;28.40;15.60;;;;;;;;;;5028526;28;20550;-67
2022/10/23 00:48:15;;;;;;;25.97;14.10;;;;;;;;;;5028736;28;20223;-67
2022/10/23 00:50:42;;;;;;;27.80;13.93;;;;;;;;;;5012029;28;20215;-67
2022/10/23 00:53:09;;;;;;;25.67;14.03;;;;;;;;;;4998012;28;20265;-67
2022/10/23 00:55:37;;;;;;;26.17;13.80;;;;;;;;;;5014956;28;20187;-67
2022/10/23 00:58:04;;;;;;;27.37;13.20;;;;;;;;;;5015363;28;20188;-67
2022/10/23 01:00:39;;;;;;;31.57;14.27;;;;;;;;;;5031084;28;20188;-67
2022/10/23 01:03:06;;;;;;;29.80;14.57;;;;;;;;;;4996140;28;20203;-68
2022/10/23 01:05:40;;;;;;;29.07;15.10;;;;;;;;;;5030970;28;20290;-67
2022/10/23 01:08:14;;;;;;;31.83;15.23;;;;;;;;;;5014055;28;20600;-67
2022/10/23 01:10:46;;;;;;;30.30;14.97;;;;;;;;;;5030777;28;20225;-67
2022/10/23 01:13:13;;;;;;;27.70;14.07;;;;;;;;;;5031259;28;20195;-67
2022/10/23 01:15:44;;;;;;;29.90;13.90;;;;;;;;;;5013858;28;20667;-68
2022/10/23 01:18:29;;;;;;;30.30;14.43;;;;;;;;;;5030598;28;20192;-67
2022/10/23 01:20:58;;;;;;;26.40;14.53;;;;;;;;;;5030665;28;20528;-67
2022/10/23 01:23:31;;;;;;;29.07;14.00;;;;;;;;;;5031739;28;20197;-67
2022/10/23 01:26:18;;;;;;;31.67;14.70;;;;;;;;;;5029822;28;20230;-67
2022/10/23 01:28:48;;;;;;;26.77;13.63;;;;;;;;;;5014169;28;20257;-67
2022/10/23 01:31:17;;;;;;;31.07;14.97;;;;;;;;;;5030454;28;20238;-67
2022/10/23 01:33:46;;;;;;;29.37;15.27;;;;;;;;;;5014187;28;20662;-67
2022/10/23 01:36:20;;;;;;;28.07;14.67;;;;;;;;;;4998498;28;20570;-67
2022/10/23 01:39:06;;;;;;;33.93;16.37;;;;;;;;;;5016347;28;20175;-67
2022/10/23 01:41:36;;;;;;;31.90;15.37;;;;;;;;;;4997360;28;20199;-67
2022/10/23 01:44:26;;;;;;;33.47;16.53;;;;;;;;;;4997566;28;20353;-67
2022/10/23 01:46:53;;;;;;;36.20;15.90;;;;;;;;;;5003400;28;20203;-68
2022/10/23 01:49:20;;;;;;;37.80;17.63;;;;;;;;;;5030682;28;20199;-67
2022/10/23 01:51:55;;;;;;;36.87;17.07;;;;;;;;;;4997792;28;20226;-67
2022/10/23 01:54:23;;;;;;;32.87;17.67;;;;;;;;;;5013777;28;20638;-67
2022/10/23 01:56:49;;;;;;;44.57;17.37;;;;;;;;;;4997233;28;20202;-67
2022/10/23 01:59:22;;;;;;;43.33;17.77;;;;;;;;;;4997757;28;20314;-68
2022/10/23 02:01:49;;;;;;;45.20;19.00;;;;;;;;;;5013020;28;20207;-67
2022/10/23 02:04:18;;;;;;;44.53;18.80;;;;;;;;;;4996794;28;20204;-67
2022/10/23 02:06:45;;;;;;;40.60;17.67;;;;;;;;;;5029534;28;20209;-67
2022/10/23 02:09:11;;;;;;;40.17;18.43;;;;;;;;;;5029606;28;20191;-67
2022/10/23 02:11:39;;;;;;;39.93;18.07;;;;;;;;;;5031163;28;20242;-67
2022/10/23 02:14:25;;;;;;;43.30;18.03;;;;;;;;;;5029365;28;20221;-68
2022/10/23 02:16:53;;;;;;;36.77;15.83;;;;;;;;;;5012680;28;20532;-68
2022/10/23 02:19:20;;;;;;;43.30;17.83;;;;;;;;;;5029963;28;20352;-67
2022/10/23 02:21:50;;;;;;;40.67;18.83;;;;;;;;;;5029294;28;20547;-67
2022/10/23 02:24:17;;;;;;;46.17;19.20;;;;;;;;;;5030805;28;20202;-67
2022/10/23 02:26:48;;;;;;;42.30;19.30;;;;;;;;;;5000814;28;20192;-67
2022/10/23 02:29:20;;;;;;;43.60;19.33;;;;;;;;;;5029481;28;20199;-67
2022/10/23 02:31:47;;;;;;;41.80;19.13;;;;;;;;;;5029161;28;20215;-67
2022/10/23 02:34:15;;;;;;;50.87;19.37;;;;;;;;;;5030887;28;20282;-67
2022/10/23 02:36:42;;;;;;;43.57;19.20;;;;;;;;;;5030273;28;20203;-67
2022/10/23 02:39:08;;;;;;;44.63;17.73;;;;;;;;;;5030144;28;20188;-67
2022/10/23 02:41:54;;;;;;;39.27;17.50;;;;;;;;;;5029297;28;20281;-67
2022/10/23 02:44:21;;;;;;;38.80;17.10;;;;;;;;;;5029243;28;21004;-67
2022/10/23 02:47:03;;;;;;;42.07;16.80;;;;;;;;;;5027756;28;20290;-68
2022/10/23 02:49:30;;;;;;;40.13;17.53;;;;;;;;;;5012397;28;20238;-67
2022/10/23 02:52:16;;;;;;;42.23;17.77;;;;;;;;;;5028910;28;20315;-67
2022/10/23 02:54:45;;;;;;;31.87;15.93;;;;;;;;;;5030171;28;20241;-67
2022/10/23 02:57:12;;;;;;;32.10;16.60;;;;;;;;;;5029968;28;20554;-67
2022/10/23 02:59:51;;;;;;;32.87;17.37;;;;;;;;;;5029001;28;20202;-67
2022/10/23 03:02:37;;;;;;;33.87;15.40;;;;;;;;;;5012360;28;20720;-67
2022/10/23 03:05:06;;;;;;;31.33;14.90;;;;;;;;;;5026399;28;21079;-67
2022/10/23 03:07:32;;;;;;;30.57;14.77;;;;;;;;;;5012408;28;20179;-67
2022/10/23 03:10:04;;;;;;;33.00;14.77;;;;;;;;;;5013222;28;20670;-67
2022/10/23 03:12:32;;;;;;;31.83;16.20;;;;;;;;;;5029512;28;20184;-67
2022/10/23 03:14:58;;;;;;;30.50;15.80;;;;;;;;;;4995454;28;20605;-67
2022/10/23 03:17:25;;;;;;;33.93;16.13;;;;;;;;;;5029595;28;20211;-67
2022/10/23 03:19:56;;;;;;;33.60;15.17;;;;;;;;;;5012101;28;20206;-67
2022/10/23 03:22:22;;;;;;;37.13;15.90;;;;;;;;;;5029165;28;20278;-67
2022/10/23 03:24:49;;;;;;;36.93;15.73;;;;;;;;;;5011921;28;20191;-67
2022/10/23 03:27:16;;;;;;;30.67;16.07;;;;;;;;;;5028359;28;20253;-67
2022/10/23 03:29:42;;;;;;;34.70;16.77;;;;;;;;;;5029646;28;20611;-67
2022/10/23 03:32:09;;;;;;;29.20;15.03;;;;;;;;;;5028033;28;20821;-67
2022/10/23 03:34:36;;;;;;;30.30;15.20;;;;;;;;;;5011874;28;20286;-67
2022/10/23 03:37:03;;;;;;;26.80;14.60;;;;;;;;;;5028468;28;20282;-67
2022/10/23 03:39:30;;;;;;;29.70;15.30;;;;;;;;;;5029363;28;20191;-67
2022/10/23 03:41:56;;;;;;;32.97;16.07;;;;;;;;;;5029353;28;20592;-67
2022/10/23 03:44:23;;;;;;;31.60;14.90;;;;;;;;;;5011881;28;20187;-67
2022/10/23 03:46:50;;;;;;;26.90;14.10;;;;;;;;;;5029113;28;20200;-67
2022/10/23 03:49:17;;;;;;;31.53;14.40;;;;;;;;;;5028591;28;20214;-67
2022/10/23 03:51:50;;;;;;;27.20;14.50;;;;;;;;;;5011338;28;20717;-67
2022/10/23 03:54:20;;;;;;;26.77;14.50;;;;;;;;;;5029216;28;20203;-67
2022/10/23 03:56:47;;;;;;;31.03;14.17;;;;;;;;;;5029253;28;20194;-67
2022/10/23 03:59:13;;;;;;;31.10;14.77;;;;;;;;;;5011614;28;20190;-67
2022/10/23 04:01:41;;;;;;;30.70;15.40;;;;;;;;;;5011482;28;20290;-67
2022/10/23 04:04:08;;;;;;;32.17;16.77;;;;;;;;;;5027971;28;20188;-67
2022/10/23 04:06:34;;;;;;;33.87;16.27;;;;;;;;;;5009424;28;20594;-67
2022/10/23 04:09:02;;;;;;;30.93;15.77;;;;;;;;;;5007875;28;20192;-67
2022/10/23 04:11:30;;;;;;;28.40;14.53;;;;;;;;;;5008096;28;20754;-67
2022/10/23 04:13:57;;;;;;;27.17;14.23;;;;;;;;;;5009272;28;20206;-67
2022/10/23 04:16:24;;;;;;;29.13;14.10;;;;;;;;;;5009584;28;20220;-67
2022/10/23 04:18:51;;;;;;;30.93;14.07;;;;;;;;;;4991889;28;20193;-67
2022/10/23 04:21:17;;;;;;;25.37;13.87;;;;;;;;;;5012350;28;20196;-67
2022/10/23 04:23:44;;;;;;;29.60;14.37;;;;;;;;;;5028692;28;20590;-67
2022/10/23 04:26:13;;;;;;;24.97;13.70;;;;;;;;;;5014750;28;20582;-67
2022/10/23 04:28:40;;;;;;;26.67;13.37;;;;;;;;;;5031557;28;20206;-68
2022/10/23 04:31:07;;;;;;;28.90;14.37;;;;;;;;;;5031793;28;20215;-67
2022/10/23 04:33:34;;;;;;;22.93;14.03;;;;;;;;;;5032739;28;20655;-68
2022/10/23 04:36:00;;;;;;;28.83;14.50;;;;;;;;;;5031477;28;20280;-67
2022/10/23 04:38:27;;;;;;;30.27;15.43;;;;;;;;;;5014583;28;20195;-67
2022/10/23 04:40:54;;;;;;;27.63;14.53;;;;;;;;;;5031406;28;20199;-67
2022/10/23 04:43:21;;;;;;;29.50;14.77;;;;;;;;;;5031717;28;20269;-67
2022/10/23 04:45:48;;;;;;;32.47;14.70;;;;;;;;;;5032412;28;20218;-67
2022/10/23 04:48:15;;;;;;;31.03;15.17;;;;;;;;;;4998275;28;20255;-68
2022/10/23 04:51:11;;;;;;;27.20;13.73;;;;;;;;;;4995514;28;20224;-67
2022/10/23 04:53:50;;;;;;;29.80;15.33;;;;;;;;;;5032267;28;20191;-67
2022/10/23 04:56:49;;;;;;;27.10;14.37;;;;;;;;;;5009280;28;20203;-67
2022/10/23 04:59:19;;;;;;;27.80;14.80;;;;;;;;;;5031097;28;20211;-67
2022/10/23 05:01:46;;;;;;;27.87;14.13;;;;;;;;;;4998021;28;20195;-67
2022/10/23 05:04:13;;;;;;;28.43;14.70;;;;;;;;;;5027806;28;20279;-67
2022/10/23 05:06:58;;;;;;;34.60;15.57;;;;;;;;;;5013036;28;20686;-68
2022/10/23 05:09:35;;;;;;;34.53;16.47;;;;;;;;;;5011041;28;20203;-68
2022/10/23 05:12:14;;;;;;;35.40;15.77;;;;;;;;;;5027602;28;20219;-67
2022/10/23 05:14:41;;;;;;;31.93;15.37;;;;;;;;;;5012103;28;20200;-68
2022/10/23 05:17:10;;;;;;;31.30;16.10;;;;;;;;;;5027324;28;20199;-67
2022/10/23 05:19:39;;;;;;;33.67;15.20;;;;;;;;;;5027174;28;20204;-66
2022/10/23 05:22:06;;;;;;;33.17;15.40;;;;;;;;;;5023880;28;21078;-69
2022/10/23 05:24:53;;;;;;;26.93;15.03;;;;;;;;;;5032714;28;20571;-70
2022/10/23 05:27:25;;;;;;;30.17;15.30;;;;;;;;;;5020475;28;20231;-71
2022/10/23 05:29:53;;;;;;;27.73;15.23;;;;;;;;;;5019119;28;20290;-71
2022/10/23 05:32:24;;;;;;;29.23;15.23;;;;;;;;;;5007496;28;20216;-70
2022/10/23 05:34:51;;;;;;;31.97;15.13;;;;;;;;;;5025426;28;20275;-69
2022/10/23 05:37:19;;;;;;;31.23;15.70;;;;;;;;;;5032132;28;20201;-69
2022/10/23 05:39:46;;;;;;;29.27;14.97;;;;;;;;;;5030894;28;20206;-70
2022/10/23 05:42:15;;;;;;;29.80;16.40;;;;;;;;;;5024405;28;20302;-69
2022/10/23 05:44:42;;;;;;;29.50;14.90;;;;;;;;;;5006037;28;20229;-71
2022/10/23 05:47:28;;;;;;;33.53;16.50;;;;;;;;;;5033040;28;20234;-71
2022/10/23 05:50:11;;;;;;;27.20;14.10;;;;;;;;;;5029715;28;20196;-71
2022/10/23 05:52:38;;;;;;;26.93;14.43;;;;;;;;;;5023432;28;20223;-70
2022/10/23 05:55:24;;;;;;;26.93;15.17;;;;;;;;;;5010303;28;20202;-70
2022/10/23 05:58:12;;;;;;;28.63;15.80;;;;;;;;;;5008745;28;20306;-69
2022/10/23 06:01:08;;;;;;;34.70;16.67;;;;;;;;;;5029497;28;21090;-69
2022/10/23 06:04:01;;;;;;;44.70;20.63;;;;;;;;;;5026678;28;20255;-69
2022/10/23 06:06:57;;;;;;;45.13;22.10;;;;;;;;;;5011749;28;20203;-70
2022/10/23 06:09:24;;;;;;;49.17;22.07;;;;;;;;;;5027681;28;20216;-69
2022/10/23 06:11:55;;;;;;;47.97;22.43;;;;;;;;;;5024821;28;20223;-71
2022/10/23 06:14:22;;;;;;;52.27;23.83;;;;;;;;;;5024552;28;20216;-71
2022/10/23 06:16:50;;;;;;;51.07;23.60;;;;;;;;;;5032488;28;20857;-71
2022/10/23 06:19:18;;;;;;;55.47;24.50;;;;;;;;;;5005808;28;20206;-71
2022/10/23 06:21:47;;;;;;;67.07;26.23;;;;;;;;;;5014107;28;20209;-70
2022/10/23 06:24:15;;;;;;;57.23;25.37;;;;;;;;;;5025806;28;20234;-69
2022/10/23 06:26:47;;;;;;;67.00;26.40;;;;;;;;;;5024366;28;20199;-71
2022/10/23 06:29:19;;;;;;;57.47;24.53;;;;;;;;;;5034315;28;20755;-73
2022/10/23 06:31:48;;;;;;;56.87;23.80;;;;;;;;;;5007626;28;20218;-71
2022/10/23 06:34:16;;;;;;;54.07;23.20;;;;;;;;;;5022106;28;20207;-70
2022/10/23 06:36:44;;;;;;;51.03;22.80;;;;;;;;;;5016375;28;20281;-70
2022/10/23 06:39:35;;;;;;;50.10;21.93;;;;;;;;;;5029520;28;20223;-70
2022/10/23 06:42:08;;;;;;;47.97;21.27;;;;;;;;;;5029414;28;20194;-70
2022/10/23 06:44:54;;;;;;;47.13;21.57;;;;;;;;;;5028956;28;20219;-70
2022/10/23 06:47:50;;;;;;;45.27;22.07;;;;;;;;;;4981414;28;20220;-70
2022/10/23 06:50:36;;;;;;;45.57;20.97;;;;;;;;;;5002279;28;20216;-70
2022/10/23 06:53:08;;;;;;;41.87;20.07;;;;;;;;;;5022223;28;20245;-71
2022/10/23 06:55:41;;;;;;;48.80;20.03;;;;;;;;;;5011595;28;20257;-70
2022/10/23 06:58:09;;;;;;;44.17;19.73;;;;;;;;;;5018449;28;20195;-71
2022/10/23 07:00:51;;;;;;;37.13;18.90;;;;;;;;;;4998748;28;20258;-69
2022/10/23 07:03:18;;;;;;;40.63;19.33;;;;;;;;;;5013250;28;20192;-71
2022/10/23 07:05:46;;;;;;;42.47;20.07;;;;;;;;;;5011823;28;20194;-70
2022/10/23 07:08:14;;;;;;;39.57;18.67;;;;;;;;;;5024381;28;20199;-68
2022/10/23 07:10:44;;;;;;;41.33;19.03;;;;;;;;;;5009560;28;20194;-68
2022/10/23 07:13:11;;;;;;;37.77;18.50;;;;;;;;;;5016647;28;20230;-68
2022/10/23 07:15:39;;;;;;;41.50;19.80;;;;;;;;;;5034173;28;20258;-68
2022/10/23 07:18:16;;;;;;;40.03;19.80;;;;;;;;;;4998200;28;20222;-72
2022/10/23 07:21:03;;;;;;;38.83;20.03;;;;;;;;;;5033025;28;20200;-68
2022/10/23 07:23:31;;;;;;;39.23;20.07;;;;;;;;;;5034035;28;20289;-68
2022/10/23 07:26:05;;;;;;;37.67;19.70;;;;;;;;;;5013530;28;20207;-68
2022/10/23 07:28:33;;;;;;;44.10;21.03;;;;;;;;;;4996930;28;20297;-69
2022/10/23 07:31:00;;;;;;;37.30;20.03;;;;;;;;;;4997049;28;20669;-69
2022/10/23 07:33:47;;;;;;;38.67;20.47;;;;;;;;;;5025033;28;20571;-68
2022/10/23 07:36:17;;;;;;;38.83;21.10;;;;;;;;;;5014224;28;20206;-69
2022/10/23 07:38:44;;;;;;;41.33;21.50;;;;;;;;;;5018763;28;20546;-68
2022/10/23 07:41:11;;;;;;;40.43;21.30;;;;;;;;;;5050136;28;20305;-68
2022/10/23 07:43:39;;;;;;;39.07;21.50;;;;;;;;;;4999689;28;20191;-69
2022/10/23 07:46:08;;;;;;;39.80;21.77;;;;;;;;;;5012848;28;20622;-68
2022/10/23 07:48:37;;;;;;;38.10;21.97;;;;;;;;;;5030232;28;20701;-70
2022/10/23 07:51:10;;;;;;;39.20;20.73;;;;;;;;;;5033773;28;20226;-67
2022/10/23 07:53:43;;;;;;;39.07;22.30;;;;;;;;;;5015295;28;20232;-68
2022/10/23 07:56:39;;;;;;;41.53;21.20;;;;;;;;;;4984435;28;20352;-73
2022/10/23 07:59:26;;;;;;;37.53;21.77;;;;;;;;;;5020851;28;20293;-68
2022/10/23 08:02:12;;;;;;;34.70;21.30;;;;;;;;;;5021097;28;20191;-68
2022/10/23 08:04:40;;;;;;;38.17;21.57;;;;;;;;;;5013552;28;20191;-68
2022/10/23 08:07:20;;;;;;;35.43;21.13;;;;;;;;;;5041331;28;20193;-68
2022/10/23 08:09:49;;;;;;;32.00;20.73;;;;;;;;;;5046381;28;20846;-68
2022/10/23 08:12:16;;;;;;;31.87;19.77;;;;;;;;;;5041297;28;20204;-68
2022/10/23 08:14:43;;;;;;;35.00;19.93;;;;;;;;;;5035417;28;20203;-68
2022/10/23 08:17:11;;;;;;;30.20;18.33;;;;;;;;;;5050499;28;20194;-68
2022/10/23 08:20:09;;;;;;;28.10;16.77;;;;;;;;;;5010582;28;20179;-68
2022/10/23 08:22:41;;;;;;;26.47;15.73;;;;;;;;;;5052803;28;20240;-68
2022/10/23 08:25:08;;;;;;;29.30;18.07;;;;;;;;;;5056366;28;20221;-68
2022/10/23 08:27:35;;;;;;;21.60;13.60;;;;;;;;;;5048943;28;20195;-69
2022/10/23 08:30:03;;;;;;;21.23;14.47;;;;;;;;;;5011125;28;20201;-69
2022/10/23 08:32:29;;;;;;;18.30;13.23;;;;;;;;;;5027879;28;20294;-70
2022/10/23 08:34:58;;;;;;;22.53;12.80;;;;;;;;;;5033301;28;20190;-69
2022/10/23 08:37:28;;;;;;;19.70;12.97;;;;;;;;;;5012780;28;20891;-70
2022/10/23 08:39:55;;;;;;;18.37;12.43;;;;;;;;;;4996985;28;20191;-70
2022/10/23 08:42:39;;;;;;;17.03;12.03;;;;;;;;;;5036923;28;20681;-68
2022/10/23 08:45:10;;;;;;;15.07;10.90;;;;;;;;;;5016840;28;20200;-68
2022/10/23 08:47:39;;;;;;;15.80;10.80;;;;;;;;;;4996239;28;20322;-68
2022/10/23 08:50:27;;;;;;;17.33;10.43;;;;;;;;;;4991057;28;20241;-68
2022/10/23 08:52:58;;;;;;;15.00;9.60;;;;;;;;;;5030345;28;20215;-68
2022/10/23 08:55:26;;;;;;;14.40;9.47;;;;;;;;;;5035321;28;20199;-68
2022/10/23 08:58:16;;;;;;;15.23;9.60;;;;;;;;;;5019394;28;20253;-67
2022/10/23 09:00:43;;;;;;;9.47;7.83;;;;;;;;;;5023178;28;20205;-68
2022/10/23 09:03:10;;;;;;;9.87;6.80;;;;;;;;;;5028524;28;20655;-70
2022/10/23 09:05:50;;;;;;;8.80;6.37;;;;;;;;;;5017065;28;20195;-68
2022/10/23 09:08:25;;;;;;;8.13;7.10;;;;;;;;;;5036727;28;20191;-68
2022/10/23 09:10:58;;;;;;;10.47;6.60;;;;;;;;;;5032082;28;20203;-68
2022/10/23 09:13:44;;;;;;;8.60;6.03;;;;;;;;;;5033533;28;20243;-68
2022/10/23 09:16:21;;;;;;;9.27;6.00;;;;;;;;;;5023684;28;20188;-68
2022/10/23 09:18:48;;;;;;;9.87;6.57;;;;;;;;;;5012728;28;20706;-68
2022/10/23 09:21:15;;;;;;;10.97;6.27;;;;;;;;;;5047922;28;20190;-68
2022/10/23 09:23:42;;;;;;;10.43;6.33;;;;;;;;;;5008788;28;20462;-71
2022/10/23 09:26:16;;;;;;;8.27;6.17;;;;;;;;;;5029178;28;20203;-70
2022/10/23 09:28:56;;;;;;;7.50;5.83;;;;;;;;;;5037387;28;20182;-71
2022/10/23 09:31:24;;;;;;;8.00;6.00;;;;;;;;;;5017950;28;20543;-72
2022/10/23 09:33:57;;;;;;;11.60;6.60;;;;;;;;;;5028553;28;20223;-71
2022/10/23 09:36:27;;;;;;;7.23;5.67;;;;;;;;;;5033446;28;20800;-70
2022/10/23 09:38:55;;;;;;;7.47;5.60;;;;;;;;;;5019665;28;20194;-70
2022/10/23 09:41:28;;;;;;;8.27;5.73;;;;;;;;;;5021452;28;20219;-70
2022/10/23 09:44:06;;;;;;;6.90;5.60;;;;;;;;;;5029924;28;20249;-69
2022/10/23 09:46:43;;;;;;;5.57;4.90;;;;;;;;;;5033653;28;20281;-71
2022/10/23 09:49:37;;;;;;;7.83;5.50;;;;;;;;;;5034627;28;20285;-72
2022/10/23 09:52:07;;;;;;;8.70;5.27;;;;;;;;;;5027703;28;20223;-71
2022/10/23 09:54:37;;;;;;;6.20;4.70;;;;;;;;;;5033605;28;20182;-69
2022/10/23 09:57:19;;;;;;;7.13;4.57;;;;;;;;;;5011570;28;20271;-69
2022/10/23 09:59:52;;;;;;;5.13;4.17;;;;;;;;;;5038551;28;20205;-73
2022/10/23 10:02:25;;;;;;;5.87;4.13;;;;;;;;;;5010608;28;20195;-70
2022/10/23 10:05:22;;;;;;;7.10;4.50;;;;;;;;;;4991991;28;20214;-70
2022/10/23 10:08:13;;;;;;;12.03;5.60;;;;;;;;;;5029454;28;20190;-72
2022/10/23 10:10:44;;;;;;;6.90;5.10;;;;;;;;;;5021008;28;20204;-69
2022/10/23 10:13:21;;;;;;;6.83;4.47;;;;;;;;;;5033053;28;20297;-69
2022/10/23 10:15:49;;;;;;;6.30;4.30;;;;;;;;;;4999989;28;20191;-69
2022/10/23 10:18:18;;;;;;;8.63;4.43;;;;;;;;;;5020616;28;20191;-68
2022/10/23 10:20:56;;;;;;;8.70;4.70;;;;;;;;;;5026761;28;20663;-70
2022/10/23 10:23:28;;;;;;;9.20;4.53;;;;;;;;;;5009538;28;20198;-68
2022/10/23 10:26:00;;;;;;;8.97;5.10;;;;;;;;;;5031123;28;20191;-70
2022/10/23 10:28:29;;;;;;;6.43;4.53;;;;;;;;;;5018003;28;20202;-70
2022/10/23 10:30:59;;;;;;;6.07;4.20;;;;;;;;;;5012016;28;20195;-70
2022/10/23 10:33:31;;;;;;;10.37;4.67;;;;;;;;;;5020175;28;20219;-69
2022/10/23 10:36:01;;;;;;;9.17;4.50;;;;;;;;;;5005161;28;20202;-69
2022/10/23 10:38:35;;;;;;;7.63;4.40;;;;;;;;;;5014051;28;20218;-71
2022/10/23 10:41:10;;;;;;;6.30;4.30;;;;;;;;;;5000049;28;20324;-69
2022/10/23 10:43:43;;;;;;;7.73;4.07;;;;;;;;;;5006436;28;20203;-71
2022/10/23 10:46:19;;;;;;;5.40;3.97;;;;;;;;;;5021389;28;20605;-72
2022/10/23 10:49:10;;;;;;;6.53;3.80;;;;;;;;;;5008878;28;20854;-69
2022/10/23 10:52:08;;;;;;;5.10;3.90;;;;;;;;;;5030006;28;20194;-71
2022/10/23 10:54:38;;;;;;;6.07;3.33;;;;;;;;;;5033332;28;20199;-72
2022/10/23 10:57:08;;;;;;;5.30;3.80;;;;;;;;;;5029112;28;20298;-72
2022/10/23 10:59:40;;;;;;;5.70;4.23;;;;;;;;;;5006167;28;20935;-70
2022/10/23 11:02:11;;;;;;;7.13;3.60;;;;;;;;;;5029165;28;20654;-70
2022/10/23 11:04:56;;;;;;;6.13;3.33;;;;;;;;;;5033411;28;20865;-70
2022/10/23 11:07:24;;;;;;;8.67;3.70;;;;;;;;;;5008331;28;20202;-72
2022/10/23 11:09:51;;;;;;;5.97;3.70;;;;;;;;;;5004585;28;20283;-69
2022/10/23 11:12:19;;;;;;;5.93;3.40;;;;;;;;;;5022918;28;20199;-74
2022/10/23 11:14:46;;;;;;;6.93;3.93;;;;;;;;;;5027318;28;20191;-72
2022/10/23 11:17:15;;;;;;;7.53;3.80;;;;;;;;;;5013444;28;20187;-72
2022/10/23 11:19:44;;;;;;;7.83;3.47;;;;;;;;;;5020458;28;20341;-71
2022/10/23 11:22:25;;;;;;;7.03;3.70;;;;;;;;;;5003589;28;20211;-70
2022/10/23 11:24:52;;;;;;;7.40;4.10;;;;;;;;;;5020867;28;20925;-72
2022/10/23 11:27:23;;;;;;;10.20;4.00;;;;;;;;;;5032974;28;20981;-71
2022/10/23 11:30:13;;;;;;;5.90;3.93;;;;;;;;;;5030400;28;20198;-70
2022/10/23 11:32:54;;;;;;;8.80;4.00;;;;;;;;;;5020151;28;20273;-71
2022/10/23 11:35:40;;;;;;;6.10;3.80;;;;;;;;;;5009235;28;20555;-73
2022/10/23 11:38:20;;;;;;;7.10;3.40;;;;;;;;;;5000081;28;20314;-73
2022/10/23 11:40:50;;;;;;;7.17;3.67;;;;;;;;;;5013000;28;20827;-72
2022/10/23 11:43:32;;;;;;;6.03;3.37;;;;;;;;;;5016919;28;20288;-70
2022/10/23 11:46:12;;;;;;;4.90;2.90;;;;;;;;;;5015927;28;20222;-71
2022/10/23 11:48:40;;;;;;;6.53;2.70;;;;;;;;;;4994470;28;20277;-70
2022/10/23 11:51:33;;;;;;;7.63;2.90;;;;;;;;;;5021811;28;20301;-71
2022/10/23 11:54:09;;;;;;;6.83;2.77;;;;;;;;;;5027222;28;20344;-71
2022/10/23 11:56:36;;;;;;;5.50;2.50;;;;;;;;;;5033430;28;20271;-71
2022/10/23 11:59:23;;;;;;;16.43;8.27;;;;;;;;;;5008177;28;20257;-71
2022/10/23 12:01:51;;;;;;;5.77;4.00;;;;;;;;;;4981547;28;20638;-72
2022/10/23 12:04:23;;;;;;;4.97;3.67;;;;;;;;;;5000723;28;20738;-71
2022/10/23 12:06:54;;;;;;;6.33;3.50;;;;;;;;;;4988507;28;20184;-73
2022/10/23 12:09:24;;;;;;;5.67;3.00;;;;;;;;;;4991812;28;20712;-70
2022/10/23 12:12:01;;;;;;;9.67;3.40;;;;;;;;;;5000340;28;20540;-70
2022/10/23 12:14:30;;;;;;;4.40;2.60;;;;;;;;;;4996664;28;20226;-69
2022/10/23 12:16:56;;;;;;;4.33;2.20;;;;;;;;;;5003336;28;20622;-69
2022/10/23 12:19:25;;;;;;;3.63;2.63;;;;;;;;;;4986166;28;20211;-71
2022/10/23 12:21:53;;;;;;;5.23;3.33;;;;;;;;;;4995019;28;20651;-71
2022/10/23 12:24:23;;;;;;;3.77;2.10;;;;;;;;;;4996948;28;20226;-69
2022/10/23 12:26:59;;;;;;;5.57;2.10;;;;;;;;;;5004136;28;20199;-71
2022/10/23 12:29:29;;;;;;;4.77;2.70;;;;;;;;;;5001246;28;20193;-69
2022/10/23 12:32:15;;;;;;;4.17;2.70;;;;;;;;;;5007651;28;20296;-70
2022/10/23 12:34:54;;;;;;;4.30;2.17;;;;;;;;;;5015243;28;20219;-70
2022/10/23 12:37:41;;;;;;;6.00;2.80;;;;;;;;;;4993065;28;20199;-70
2022/10/23 12:40:08;;;;;;;8.90;4.30;;;;;;;;;;5006127;28;20285;-71
2022/10/23 12:42:35;;;;;;;5.97;3.40;;;;;;;;;;4998542;28;21098;-72
2022/10/23 12:45:09;;;;;;;4.47;2.60;;;;;;;;;;4993670;28;20221;-71
2022/10/23 12:47:36;;;;;;;5.43;2.93;;;;;;;;;;5016575;28;20220;-70
2022/10/23 12:50:24;;;;;;;5.17;2.93;;;;;;;;;;4986242;28;20201;-70
2022/10/23 12:53:02;;;;;;;5.67;2.30;;;;;;;;;;4977165;28;20207;-69
2022/10/23 12:55:33;;;;;;;6.23;2.50;;;;;;;;;;4991572;28;20305;-67
2022/10/23 12:58:01;;;;;;;7.57;3.60;;;;;;;;;;5009915;28;20318;-68
2022/10/23 13:00:29;;;;;;;4.90;2.90;;;;;;;;;;4983288;28;20293;-67
2022/10/23 13:02:57;;;;;;;4.00;2.47;;;;;;;;;;5007556;28;20892;-68
2022/10/23 13:05:24;;;;;;;4.77;2.17;;;;;;;;;;5011575;28;20758;-68
2022/10/23 13:07:51;;;;;;;5.10;2.03;;;;;;;;;;5016404;28;20207;-69
2022/10/23 13:10:26;;;;;;;8.43;3.30;;;;;;;;;;4986835;28;20246;-69
2022/10/23 13:13:03;;;;;;;5.07;2.30;;;;;;;;;;5024201;28;20222;-68
2022/10/23 13:15:37;;;;;;;8.50;5.93;;;;;;;;;;4999386;28;20214;-69
2022/10/23 13:18:05;;;;;;;5.13;2.10;;;;;;;;;;5000297;28;20184;-69
2022/10/23 13:20:36;;;;;;;4.73;2.07;;;;;;;;;;5012158;28;20999;-69
2022/10/23 13:23:06;;;;;;;2.53;2.10;;;;;;;;;;5000639;28;20278;-68
2022/10/23 13:25:34;;;;;;;3.43;1.83;;;;;;;;;;5011283;28;20779;-70
2022/10/23 13:28:03;;;;;;;5.83;2.60;;;;;;;;;;5012956;28;20199;-69
2022/10/23 13:30:32;;;;;;;4.07;2.10;;;;;;;;;;5009942;28;20196;-69
2022/10/23 13:32:59;;;;;;;4.50;2.90;;;;;;;;;;4998774;28;20192;-70
2022/10/23 13:35:27;;;;;;;6.20;3.70;;;;;;;;;;5004832;28;20194;-73
2022/10/23 13:37:54;;;;;;;6.83;3.50;;;;;;;;;;5009719;28;20192;-71
2022/10/23 13:40:23;;;;;;;6.70;3.97;;;;;;;;;;5004141;28;20194;-71
2022/10/23 13:42:50;;;;;;;5.83;2.70;;;;;;;;;;4965846;28;20229;-70
2022/10/23 13:45:19;;;;;;;6.20;2.87;;;;;;;;;;4967678;28;20201;-72
2022/10/23 13:47:46;;;;;;;3.73;2.00;;;;;;;;;;4967225;28;20221;-72
2022/10/23 13:50:13;;;;;;;5.83;1.40;;;;;;;;;;4974796;28;20225;-68
2022/10/23 13:52:40;;;;;;;4.77;1.87;;;;;;;;;;4973241;28;20724;-66
2022/10/23 13:55:23;;;;;;;3.37;1.90;;;;;;;;;;4968354;28;20218;-68
2022/10/23 13:57:50;;;;;;;3.60;1.70;;;;;;;;;;4976622;28;20648;-69
2022/10/23 14:00:17;;;;;;;4.40;1.90;;;;;;;;;;4974783;28;20197;-69
2022/10/23 14:02:44;;;;;;;4.20;1.43;;;;;;;;;;4969703;28;20200;-67
2022/10/23 14:05:11;;;;;;;2.60;2.07;;;;;;;;;;4977769;28;20194;-69
2022/10/23 14:07:38;;;;;;;4.07;2.87;;;;;;;;;;4975482;28;20197;-68
2022/10/23 14:10:07;;;;;;;3.63;2.27;;;;;;;;;;4968596;28;20189;-67
2022/10/23 14:12:40;;;;;;;4.77;1.90;;;;;;;;;;4978765;28;20248;-67
2022/10/23 14:15:08;;;;;;;5.10;1.80;;;;;;;;;;4971559;28;20559;-70
2022/10/23 14:17:36;;;;;;;2.40;1.63;;;;;;;;;;4967656;28;20186;-72
2022/10/23 14:20:03;;;;;;;3.27;2.33;;;;;;;;;;4980590;28;20228;-69
2022/10/23 14:22:33;;;;;;;4.73;1.93;;;;;;;;;;4968803;28;20538;-69
2022/10/23 14:25:00;;;;;;;5.13;2.20;;;;;;;;;;4979228;28;20197;-69
2022/10/23 14:27:28;;;;;;;3.57;1.77;;;;;;;;;;4978184;28;20312;-69
2022/10/23 14:29:56;;;;;;;4.03;1.77;;;;;;;;;;4974771;28;20208;-70
2022/10/23 14:32:23;;;;;;;3.67;1.80;;;;;;;;;;4969367;28;20194;-68
2022/10/23 14:34:51;;;;;;;4.80;2.13;;;;;;;;;;4970180;28;20688;-69
2022/10/23 14:37:18;;;;;;;4.43;2.00;;;;;;;;;;4979539;28;20782;-70
2022/10/23 14:39:45;;;;;;;4.80;2.33;;;;;;;;;;4972400;28;20220;-69
2022/10/23 14:42:16;;;;;;;5.20;2.90;;;;;;;;;;4937560;28;21049;-68
2022/10/23 14:44:43;;;;;;;4.63;2.60;;;;;;;;;;4974877;28;20635;-69
2022/10/23 14:47:10;;;;;;;5.30;2.93;;;;;;;;;;4972146;28;20825;-69
2022/10/23 14:49:39;;;;;;;6.43;2.80;;;;;;;;;;4963760;28;20256;-69
2022/10/23 14:52:06;;;;;;;6.87;2.83;;;;;;;;;;4965913;28;20300;-69
2022/10/23 14:54:35;;;;;;;4.70;2.50;;;;;;;;;;4961815;28;20840;-69